sensor_id;sensor_type;location;lat;lon;timestamp;P1;durP1;ratioP1;P2;durP2;ratioP2
19043;SDS011;9654;52.302;8.120;2022-08-06T00:02:08;3.17;;;1.30;;
19043;SDS011;9654;52.302;8.120;2022-08-06T00:04:37;1.67;;;1.23;;
19043;SDS011;9654;52.302;8.120;2022-08-06T00:07:03;1.60;;;1.17;;
19043;SDS011;9654;52.302;8.120;2022-08-06T00:09:30;3.57;;;1.50;;
19043;SDS011;9654;52.302;8.120;2022-08-06T00:11:57;1.53;;;1.33;;
19043;SDS011;9654;52.302;8.120;2022-08-06T00:14:25;1.73;;;1.63;;
19043;SDS011;9654;52.302;8.120;2022-08-06T00:16:52;2.00;;;1.50;;
19043;SDS011;9654;52.302;8.120;2022-08-06T00:19:19;1.83;;;1.73;;
19043;SDS011;9654;52.302;8.120;2022-08-06T00:21:47;1.93;;;1.23;;
19043;SDS011;9654;52.302;8.120;2022-08-06T00:24:14;2.77;;;1.40;;
19043;SDS011;9654;52.302;8.120;2022-08-06T00:26:41;3.47;;;1.33;;
19043;SDS011;9654;52.302;8.120;2022-08-06T00:29:08;4.03;;;1.90;;
19043;SDS011;9654;52.302;8.120;2022-08-06T00:31:34;3.13;;;1.77;;
19043;SDS011;9654;52.302;8.120;2022-08-06T00:34:02;2.13;;;1.93;;
19043;SDS011;9654;52.302;8.120;2022-08-06T00:36:30;3.60;;;1.90;;
19043;SDS011;9654;52.302;8.120;2022-08-06T00:38:59;3.73;;;1.93;;
19043;SDS011;9654;52.302;8.120;2022-08-06T00:41:28;3.73;;;1.83;;
19043;SDS011;9654;52.302;8.120;2022-08-06T00:43:56;1.60;;;1.50;;
19043;SDS011;9654;52.302;8.120;2022-08-06T00:46:23;5.67;;;2.60;;
19043;SDS011;9654;52.302;8.120;2022-08-06T00:48:50;3.33;;;2.00;;
19043;SDS011;9654;52.302;8.120;2022-08-06T00:51:17;5.07;;;2.17;;
19043;SDS011;9654;52.302;8.120;2022-08-06T00:53:43;2.07;;;1.90;;
19043;SDS011;9654;52.302;8.120;2022-08-06T00:56:12;4.67;;;2.10;;
19043;SDS011;9654;52.302;8.120;2022-08-06T00:58:38;2.50;;;2.30;;
19043;SDS011;9654;52.302;8.120;2022-08-06T01:01:05;4.23;;;2.37;;
19043;SDS011;9654;52.302;8.120;2022-08-06T01:03:32;2.10;;;1.90;;
19043;SDS011;9654;52.302;8.120;2022-08-06T01:05:59;2.87;;;2.10;;
19043;SDS011;9654;52.302;8.120;2022-08-06T01:08:26;4.03;;;2.20;;
19043;SDS011;9654;52.302;8.120;2022-08-06T01:10:52;2.43;;;2.23;;
19043;SDS011;9654;52.302;8.120;2022-08-06T01:13:20;2.33;;;1.97;;
19043;SDS011;9654;52.302;8.120;2022-08-06T01:15:50;2.67;;;1.93;;
19043;SDS011;9654;52.302;8.120;2022-08-06T01:18:23;2.10;;;2.00;;
19043;SDS011;9654;52.302;8.120;2022-08-06T01:21:07;4.07;;;2.30;;
19043;SDS011;9654;52.302;8.120;2022-08-06T01:23:51;3.60;;;2.40;;
19043;SDS011;9654;52.302;8.120;2022-08-06T01:26:46;5.40;;;2.67;;
19043;SDS011;9654;52.302;8.120;2022-08-06T01:29:20;3.20;;;2.43;;
19043;SDS011;9654;52.302;8.120;2022-08-06T01:31:51;3.73;;;2.57;;
19043;SDS011;9654;52.302;8.120;2022-08-06T01:34:24;2.80;;;2.40;;
19043;SDS011;9654;52.302;8.120;2022-08-06T01:36:58;4.23;;;2.40;;
19043;SDS011;9654;52.302;8.120;2022-08-06T01:39:29;3.07;;;2.67;;
19043;SDS011;9654;52.302;8.120;2022-08-06T01:41:58;4.23;;;2.27;;
19043;SDS011;9654;52.302;8.120;2022-08-06T01:44:30;3.73;;;2.40;;
19043;SDS011;9654;52.302;8.120;2022-08-06T01:47:01;6.23;;;2.77;;
19043;SDS011;9654;52.302;8.120;2022-08-06T01:49:31;2.60;;;2.40;;
19043;SDS011;9654;52.302;8.120;2022-08-06T01:52:00;2.30;;;2.20;;
19043;SDS011;9654;52.302;8.120;2022-08-06T01:54:28;6.10;;;2.33;;
19043;SDS011;9654;52.302;8.120;2022-08-06T01:56:57;3.77;;;2.30;;
19043;SDS011;9654;52.302;8.120;2022-08-06T01:59:28;2.70;;;2.57;;
19043;SDS011;9654;52.302;8.120;2022-08-06T02:01:59;5.60;;;3.30;;
19043;SDS011;9654;52.302;8.120;2022-08-06T02:04:29;2.53;;;2.33;;
19043;SDS011;9654;52.302;8.120;2022-08-06T02:06:59;3.23;;;2.57;;
19043;SDS011;9654;52.302;8.120;2022-08-06T02:09:29;2.43;;;2.23;;
19043;SDS011;9654;52.302;8.120;2022-08-06T02:12:00;6.33;;;2.60;;
19043;SDS011;9654;52.302;8.120;2022-08-06T02:14:32;3.10;;;2.33;;
19043;SDS011;9654;52.302;8.120;2022-08-06T02:17:03;2.50;;;2.30;;
19043;SDS011;9654;52.302;8.120;2022-08-06T02:19:31;4.57;;;2.70;;
19043;SDS011;9654;52.302;8.120;2022-08-06T02:22:00;3.10;;;2.90;;
19043;SDS011;9654;52.302;8.120;2022-08-06T02:24:29;6.13;;;3.07;;
19043;SDS011;9654;52.302;8.120;2022-08-06T02:26:58;3.27;;;2.93;;
19043;SDS011;9654;52.302;8.120;2022-08-06T02:29:27;2.70;;;2.50;;
19043;SDS011;9654;52.302;8.120;2022-08-06T02:31:57;2.70;;;2.50;;
19043;SDS011;9654;52.302;8.120;2022-08-06T02:34:23;1.97;;;1.87;;
19043;SDS011;9654;52.302;8.120;2022-08-06T02:36:52;2.70;;;2.03;;
19043;SDS011;9654;52.302;8.120;2022-08-06T02:39:24;2.97;;;2.53;;
19043;SDS011;9654;52.302;8.120;2022-08-06T02:41:56;4.40;;;2.57;;
19043;SDS011;9654;52.302;8.120;2022-08-06T02:44:42;3.97;;;2.73;;
19043;SDS011;9654;52.302;8.120;2022-08-06T02:47:17;2.83;;;2.63;;
19043;SDS011;9654;52.302;8.120;2022-08-06T02:49:50;3.17;;;2.87;;
19043;SDS011;9654;52.302;8.120;2022-08-06T02:52:22;3.03;;;2.60;;
19043;SDS011;9654;52.302;8.120;2022-08-06T02:54:56;5.80;;;3.07;;
19043;SDS011;9654;52.302;8.120;2022-08-06T02:57:28;5.23;;;2.83;;
19043;SDS011;9654;52.302;8.120;2022-08-06T03:00:00;4.83;;;2.73;;
19043;SDS011;9654;52.302;8.120;2022-08-06T03:02:31;5.37;;;2.83;;
19043;SDS011;9654;52.302;8.120;2022-08-06T03:05:01;3.30;;;2.40;;
19043;SDS011;9654;52.302;8.120;2022-08-06T03:07:31;2.63;;;2.53;;
19043;SDS011;9654;52.302;8.120;2022-08-06T03:10:01;2.47;;;2.37;;
19043;SDS011;9654;52.302;8.120;2022-08-06T03:12:28;3.00;;;2.67;;
19043;SDS011;9654;52.302;8.120;2022-08-06T03:14:56;3.97;;;2.20;;
19043;SDS011;9654;52.302;8.120;2022-08-06T03:17:27;3.30;;;2.70;;
19043;SDS011;9654;52.302;8.120;2022-08-06T03:19:56;2.53;;;2.20;;
19043;SDS011;9654;52.302;8.120;2022-08-06T03:22:26;3.20;;;2.90;;
19043;SDS011;9654;52.302;8.120;2022-08-06T03:24:54;4.07;;;2.27;;
19043;SDS011;9654;52.302;8.120;2022-08-06T03:27:23;2.40;;;2.30;;
19043;SDS011;9654;52.302;8.120;2022-08-06T03:29:51;2.77;;;2.57;;
19043;SDS011;9654;52.302;8.120;2022-08-06T03:32:19;3.67;;;2.50;;
19043;SDS011;9654;52.302;8.120;2022-08-06T03:34:47;2.20;;;2.10;;
19043;SDS011;9654;52.302;8.120;2022-08-06T03:37:17;3.20;;;2.33;;
19043;SDS011;9654;52.302;8.120;2022-08-06T03:39:45;2.63;;;2.43;;
19043;SDS011;9654;52.302;8.120;2022-08-06T03:42:14;2.40;;;2.20;;
19043;SDS011;9654;52.302;8.120;2022-08-06T03:44:40;2.83;;;2.63;;
19043;SDS011;9654;52.302;8.120;2022-08-06T03:47:09;3.50;;;3.17;;
19043;SDS011;9654;52.302;8.120;2022-08-06T03:49:40;4.23;;;2.93;;
19043;SDS011;9654;52.302;8.120;2022-08-06T03:52:12;4.03;;;2.73;;
19043;SDS011;9654;52.302;8.120;2022-08-06T03:54:46;2.93;;;2.73;;
19043;SDS011;9654;52.302;8.120;2022-08-06T03:57:27;5.27;;;3.13;;
19043;SDS011;9654;52.302;8.120;2022-08-06T03:59:58;5.47;;;2.77;;
19043;SDS011;9654;52.302;8.120;2022-08-06T04:02:27;3.50;;;3.20;;
19043;SDS011;9654;52.302;8.120;2022-08-06T04:04:56;7.10;;;3.10;;
19043;SDS011;9654;52.302;8.120;2022-08-06T04:07:24;3.27;;;2.87;;
19043;SDS011;9654;52.302;8.120;2022-08-06T04:09:53;6.63;;;4.07;;
19043;SDS011;9654;52.302;8.120;2022-08-06T04:12:21;4.17;;;3.83;;
19043;SDS011;9654;52.302;8.120;2022-08-06T04:14:50;5.93;;;3.43;;
19043;SDS011;9654;52.302;8.120;2022-08-06T04:17:17;4.93;;;4.00;;
19043;SDS011;9654;52.302;8.120;2022-08-06T04:19:45;3.77;;;3.47;;
19043;SDS011;9654;52.302;8.120;2022-08-06T04:22:12;4.37;;;3.73;;
19043;SDS011;9654;52.302;8.120;2022-08-06T04:24:39;4.53;;;4.00;;
19043;SDS011;9654;52.302;8.120;2022-08-06T04:27:08;5.93;;;4.17;;
19043;SDS011;9654;52.302;8.120;2022-08-06T04:29:37;5.30;;;4.33;;
19043;SDS011;9654;52.302;8.120;2022-08-06T04:32:06;5.77;;;4.00;;
19043;SDS011;9654;52.302;8.120;2022-08-06T04:34:35;6.57;;;4.00;;
19043;SDS011;9654;52.302;8.120;2022-08-06T04:37:04;6.37;;;3.77;;
19043;SDS011;9654;52.302;8.120;2022-08-06T04:39:31;6.40;;;4.27;;
19043;SDS011;9654;52.302;8.120;2022-08-06T04:41:59;6.80;;;3.87;;
19043;SDS011;9654;52.302;8.120;2022-08-06T04:44:28;7.50;;;4.03;;
19043;SDS011;9654;52.302;8.120;2022-08-06T04:46:56;5.30;;;4.00;;
19043;SDS011;9654;52.302;8.120;2022-08-06T04:49:24;5.10;;;4.03;;
19043;SDS011;9654;52.302;8.120;2022-08-06T04:51:50;8.10;;;4.20;;
19043;SDS011;9654;52.302;8.120;2022-08-06T04:54:17;4.50;;;3.93;;
19043;SDS011;9654;52.302;8.120;2022-08-06T04:56:44;4.33;;;3.60;;
19043;SDS011;9654;52.302;8.120;2022-08-06T04:59:11;4.30;;;3.67;;
19043;SDS011;9654;52.302;8.120;2022-08-06T05:01:40;6.33;;;3.73;;
19043;SDS011;9654;52.302;8.120;2022-08-06T05:04:06;10.43;;;4.83;;
19043;SDS011;9654;52.302;8.120;2022-08-06T05:06:38;7.40;;;4.83;;
19043;SDS011;9654;52.302;8.120;2022-08-06T05:09:12;6.77;;;4.60;;
19043;SDS011;9654;52.302;8.120;2022-08-06T05:11:43;7.97;;;5.33;;
19043;SDS011;9654;52.302;8.120;2022-08-06T05:14:15;6.27;;;4.83;;
19043;SDS011;9654;52.302;8.120;2022-08-06T05:16:46;5.20;;;4.77;;
19043;SDS011;9654;52.302;8.120;2022-08-06T05:19:16;6.87;;;5.00;;
19043;SDS011;9654;52.302;8.120;2022-08-06T05:21:46;8.13;;;5.10;;
19043;SDS011;9654;52.302;8.120;2022-08-06T05:24:14;5.53;;;4.57;;
19043;SDS011;9654;52.302;8.120;2022-08-06T05:26:41;7.60;;;5.40;;
19043;SDS011;9654;52.302;8.120;2022-08-06T05:29:11;7.50;;;4.93;;
19043;SDS011;9654;52.302;8.120;2022-08-06T05:31:38;6.17;;;4.73;;
19043;SDS011;9654;52.302;8.120;2022-08-06T05:34:08;5.53;;;5.03;;
19043;SDS011;9654;52.302;8.120;2022-08-06T05:36:36;8.67;;;4.73;;
19043;SDS011;9654;52.302;8.120;2022-08-06T05:39:03;5.23;;;4.47;;
19043;SDS011;9654;52.302;8.120;2022-08-06T05:41:30;6.53;;;4.67;;
19043;SDS011;9654;52.302;8.120;2022-08-06T05:43:59;7.80;;;4.47;;
19043;SDS011;9654;52.302;8.120;2022-08-06T05:46:28;5.63;;;4.57;;
19043;SDS011;9654;52.302;8.120;2022-08-06T05:49:00;5.00;;;4.50;;
19043;SDS011;9654;52.302;8.120;2022-08-06T05:51:34;5.03;;;4.40;;
19043;SDS011;9654;52.302;8.120;2022-08-06T05:54:05;4.20;;;3.80;;
19043;SDS011;9654;52.302;8.120;2022-08-06T05:56:38;8.50;;;4.27;;
19043;SDS011;9654;52.302;8.120;2022-08-06T05:59:10;4.77;;;3.73;;
19043;SDS011;9654;52.302;8.120;2022-08-06T06:01:43;4.67;;;3.93;;
19043;SDS011;9654;52.302;8.120;2022-08-06T06:04:11;5.17;;;3.80;;
19043;SDS011;9654;52.302;8.120;2022-08-06T06:06:40;6.00;;;3.67;;
19043;SDS011;9654;52.302;8.120;2022-08-06T06:09:09;5.27;;;3.80;;
19043;SDS011;9654;52.302;8.120;2022-08-06T06:11:38;6.43;;;3.37;;
19043;SDS011;9654;52.302;8.120;2022-08-06T06:14:06;5.57;;;2.93;;
19043;SDS011;9654;52.302;8.120;2022-08-06T06:16:50;4.27;;;3.23;;
19043;SDS011;9654;52.302;8.120;2022-08-06T06:19:24;3.03;;;2.50;;
19043;SDS011;9654;52.302;8.120;2022-08-06T06:22:02;7.97;;;2.70;;
19043;SDS011;9654;52.302;8.120;2022-08-06T06:24:37;4.70;;;2.47;;
19043;SDS011;9654;52.302;8.120;2022-08-06T06:27:11;3.17;;;2.20;;
19043;SDS011;9654;52.302;8.120;2022-08-06T06:29:43;3.23;;;2.30;;
19043;SDS011;9654;52.302;8.120;2022-08-06T06:32:19;4.27;;;2.20;;
19043;SDS011;9654;52.302;8.120;2022-08-06T06:34:54;4.37;;;2.20;;
19043;SDS011;9654;52.302;8.120;2022-08-06T06:37:34;3.90;;;2.50;;
19043;SDS011;9654;52.302;8.120;2022-08-06T06:40:09;6.73;;;2.50;;
19043;SDS011;9654;52.302;8.120;2022-08-06T06:42:45;3.70;;;1.93;;
19043;SDS011;9654;52.302;8.120;2022-08-06T06:45:19;5.03;;;2.00;;
19043;SDS011;9654;52.302;8.120;2022-08-06T06:47:52;3.13;;;2.00;;
19043;SDS011;9654;52.302;8.120;2022-08-06T06:50:26;3.83;;;1.50;;
19043;SDS011;9654;52.302;8.120;2022-08-06T06:52:56;2.50;;;1.50;;
19043;SDS011;9654;52.302;8.120;2022-08-06T06:55:25;5.27;;;1.83;;
19043;SDS011;9654;52.302;8.120;2022-08-06T06:57:58;2.00;;;1.30;;
19043;SDS011;9654;52.302;8.120;2022-08-06T07:00:29;2.27;;;1.20;;
19043;SDS011;9654;52.302;8.120;2022-08-06T07:02:58;1.93;;;1.43;;
19043;SDS011;9654;52.302;8.120;2022-08-06T07:05:27;6.70;;;1.47;;
19043;SDS011;9654;52.302;8.120;2022-08-06T07:07:56;1.37;;;1.17;;
19043;SDS011;9654;52.302;8.120;2022-08-06T07:10:25;2.00;;;1.10;;
19043;SDS011;9654;52.302;8.120;2022-08-06T07:12:53;2.33;;;1.33;;
19043;SDS011;9654;52.302;8.120;2022-08-06T07:15:21;2.17;;;1.20;;
19043;SDS011;9654;52.302;8.120;2022-08-06T07:17:49;3.37;;;1.10;;
19043;SDS011;9654;52.302;8.120;2022-08-06T07:20:18;3.90;;;0.87;;
19043;SDS011;9654;52.302;8.120;2022-08-06T07:22:49;2.97;;;0.90;;
19043;SDS011;9654;52.302;8.120;2022-08-06T07:25:19;1.90;;;0.77;;
19043;SDS011;9654;52.302;8.120;2022-08-06T07:27:48;1.10;;;0.73;;
19043;SDS011;9654;52.302;8.120;2022-08-06T07:30:16;0.63;;;0.63;;
19043;SDS011;9654;52.302;8.120;2022-08-06T07:32:46;4.10;;;0.93;;
19043;SDS011;9654;52.302;8.120;2022-08-06T07:35:14;2.07;;;0.60;;
19043;SDS011;9654;52.302;8.120;2022-08-06T07:37:42;2.47;;;0.57;;
19043;SDS011;9654;52.302;8.120;2022-08-06T07:40:15;0.30;;;0.30;;
19043;SDS011;9654;52.302;8.120;2022-08-06T07:42:48;3.00;;;0.40;;
19043;SDS011;9654;52.302;8.120;2022-08-06T07:45:19;1.93;;;0.60;;
19043;SDS011;9654;52.302;8.120;2022-08-06T07:47:49;1.53;;;0.57;;
19043;SDS011;9654;52.302;8.120;2022-08-06T07:50:18;2.77;;;0.40;;
19043;SDS011;9654;52.302;8.120;2022-08-06T07:52:46;0.70;;;0.40;;
19043;SDS011;9654;52.302;8.120;2022-08-06T07:55:13;1.70;;;0.30;;
19043;SDS011;9654;52.302;8.120;2022-08-06T07:57:44;3.97;;;0.37;;
19043;SDS011;9654;52.302;8.120;2022-08-06T08:00:10;2.00;;;0.40;;
19043;SDS011;9654;52.302;8.120;2022-08-06T08:02:38;2.50;;;0.60;;
19043;SDS011;9654;52.302;8.120;2022-08-06T08:05:05;3.57;;;1.07;;
19043;SDS011;9654;52.302;8.120;2022-08-06T08:07:51;1.27;;;0.30;;
19043;SDS011;9654;52.302;8.120;2022-08-06T08:10:17;0.83;;;0.37;;
19043;SDS011;9654;52.302;8.120;2022-08-06T08:12:46;1.70;;;0.40;;
19043;SDS011;9654;52.302;8.120;2022-08-06T08:15:13;2.40;;;0.40;;
19043;SDS011;9654;52.302;8.120;2022-08-06T08:17:40;1.20;;;0.40;;
19043;SDS011;9654;52.302;8.120;2022-08-06T08:20:08;0.80;;;0.30;;
19043;SDS011;9654;52.302;8.120;2022-08-06T08:22:37;3.13;;;1.13;;
19043;SDS011;9654;52.302;8.120;2022-08-06T08:25:05;0.83;;;0.40;;
19043;SDS011;9654;52.302;8.120;2022-08-06T08:27:33;3.20;;;0.40;;
19043;SDS011;9654;52.302;8.120;2022-08-06T08:30:01;3.43;;;0.50;;
19043;SDS011;9654;52.302;8.120;2022-08-06T08:32:29;1.63;;;0.40;;
19043;SDS011;9654;52.302;8.120;2022-08-06T08:34:55;1.93;;;0.50;;
19043;SDS011;9654;52.302;8.120;2022-08-06T08:37:22;1.80;;;0.43;;
19043;SDS011;9654;52.302;8.120;2022-08-06T08:39:49;2.83;;;0.40;;
19043;SDS011;9654;52.302;8.120;2022-08-06T08:42:17;2.13;;;0.43;;
19043;SDS011;9654;52.302;8.120;2022-08-06T08:44:46;2.70;;;0.60;;
19043;SDS011;9654;52.302;8.120;2022-08-06T08:47:15;1.47;;;0.40;;
19043;SDS011;9654;52.302;8.120;2022-08-06T08:49:45;0.70;;;0.67;;
19043;SDS011;9654;52.302;8.120;2022-08-06T08:52:17;2.00;;;0.50;;
19043;SDS011;9654;52.302;8.120;2022-08-06T08:54:48;0.20;;;0.20;;
19043;SDS011;9654;52.302;8.120;2022-08-06T08:57:17;0.30;;;0.30;;
19043;SDS011;9654;52.302;8.120;2022-08-06T08:59:45;1.20;;;0.70;;
19043;SDS011;9654;52.302;8.120;2022-08-06T09:02:13;1.87;;;0.30;;
19043;SDS011;9654;52.302;8.120;2022-08-06T09:04:41;0.57;;;0.37;;
19043;SDS011;9654;52.302;8.120;2022-08-06T09:07:08;0.50;;;0.40;;
19043;SDS011;9654;52.302;8.120;2022-08-06T09:09:37;0.70;;;0.47;;
19043;SDS011;9654;52.302;8.120;2022-08-06T09:12:04;2.17;;;0.50;;
19043;SDS011;9654;52.302;8.120;2022-08-06T09:14:32;0.87;;;0.40;;
19043;SDS011;9654;52.302;8.120;2022-08-06T09:16:59;1.63;;;0.40;;
19043;SDS011;9654;52.302;8.120;2022-08-06T09:19:27;0.47;;;0.30;;
19043;SDS011;9654;52.302;8.120;2022-08-06T09:21:56;0.30;;;0.23;;
19043;SDS011;9654;52.302;8.120;2022-08-06T09:24:23;0.53;;;0.20;;
19043;SDS011;9654;52.302;8.120;2022-08-06T09:27:01;0.37;;;0.13;;
19043;SDS011;9654;52.302;8.120;2022-08-06T09:29:29;1.13;;;0.30;;
19043;SDS011;9654;52.302;8.120;2022-08-06T09:31:56;1.10;;;0.40;;
19043;SDS011;9654;52.302;8.120;2022-08-06T09:34:30;2.60;;;0.40;;
19043;SDS011;9654;52.302;8.120;2022-08-06T09:36:59;2.47;;;0.30;;
19043;SDS011;9654;52.302;8.120;2022-08-06T09:39:32;0.83;;;0.20;;
19043;SDS011;9654;52.302;8.120;2022-08-06T09:42:04;0.30;;;0.30;;
19043;SDS011;9654;52.302;8.120;2022-08-06T09:44:31;0.73;;;0.30;;
19043;SDS011;9654;52.302;8.120;2022-08-06T09:46:58;1.70;;;0.40;;
19043;SDS011;9654;52.302;8.120;2022-08-06T09:49:26;0.83;;;0.30;;
19043;SDS011;9654;52.302;8.120;2022-08-06T09:52:14;0.90;;;0.27;;
19043;SDS011;9654;52.302;8.120;2022-08-06T09:54:42;0.97;;;0.50;;
19043;SDS011;9654;52.302;8.120;2022-08-06T09:57:08;1.00;;;0.33;;
19043;SDS011;9654;52.302;8.120;2022-08-06T09:59:41;0.80;;;0.30;;
19043;SDS011;9654;52.302;8.120;2022-08-06T10:02:13;0.43;;;0.43;;
19043;SDS011;9654;52.302;8.120;2022-08-06T10:04:43;0.60;;;0.60;;
19043;SDS011;9654;52.302;8.120;2022-08-06T10:07:10;0.40;;;0.40;;
19043;SDS011;9654;52.302;8.120;2022-08-06T10:09:51;0.33;;;0.30;;
19043;SDS011;9654;52.302;8.120;2022-08-06T10:12:19;3.33;;;0.60;;
19043;SDS011;9654;52.302;8.120;2022-08-06T10:14:47;1.80;;;0.20;;
19043;SDS011;9654;52.302;8.120;2022-08-06T10:17:15;4.73;;;0.40;;
19043;SDS011;9654;52.302;8.120;2022-08-06T10:19:43;1.63;;;0.27;;
19043;SDS011;9654;52.302;8.120;2022-08-06T10:22:12;0.60;;;0.20;;
19043;SDS011;9654;52.302;8.120;2022-08-06T10:24:40;2.67;;;0.30;;
19043;SDS011;9654;52.302;8.120;2022-08-06T10:27:10;2.83;;;0.40;;
19043;SDS011;9654;52.302;8.120;2022-08-06T10:29:39;1.10;;;0.30;;
19043;SDS011;9654;52.302;8.120;2022-08-06T10:32:07;1.23;;;0.20;;
19043;SDS011;9654;52.302;8.120;2022-08-06T10:34:39;0.20;;;0.20;;
19043;SDS011;9654;52.302;8.120;2022-08-06T10:37:09;2.10;;;0.40;;
19043;SDS011;9654;52.302;8.120;2022-08-06T10:39:39;0.27;;;0.27;;
19043;SDS011;9654;52.302;8.120;2022-08-06T10:42:12;0.40;;;0.20;;
19043;SDS011;9654;52.302;8.120;2022-08-06T10:44:40;1.00;;;0.37;;
19043;SDS011;9654;52.302;8.120;2022-08-06T10:47:07;1.27;;;0.40;;
19043;SDS011;9654;52.302;8.120;2022-08-06T10:49:34;0.60;;;0.50;;
19043;SDS011;9654;52.302;8.120;2022-08-06T10:52:01;1.87;;;0.30;;
19043;SDS011;9654;52.302;8.120;2022-08-06T10:54:29;2.13;;;0.40;;
19043;SDS011;9654;52.302;8.120;2022-08-06T10:56:57;0.67;;;0.27;;
19043;SDS011;9654;52.302;8.120;2022-08-06T10:59:26;0.50;;;0.40;;
19043;SDS011;9654;52.302;8.120;2022-08-06T11:01:55;0.47;;;0.33;;
19043;SDS011;9654;52.302;8.120;2022-08-06T11:04:32;1.03;;;0.30;;
19043;SDS011;9654;52.302;8.120;2022-08-06T11:07:25;2.30;;;0.40;;
19043;SDS011;9654;52.302;8.120;2022-08-06T11:10:28;0.10;;;0.10;;
19043;SDS011;9654;52.302;8.120;2022-08-06T11:13:05;1.70;;;0.33;;
19043;SDS011;9654;52.302;8.120;2022-08-06T11:15:41;0.97;;;0.30;;
19043;SDS011;9654;52.302;8.120;2022-08-06T11:18:09;0.57;;;0.20;;
19043;SDS011;9654;52.302;8.120;2022-08-06T11:20:38;3.27;;;0.43;;
19043;SDS011;9654;52.302;8.120;2022-08-06T11:23:23;0.73;;;0.20;;
19043;SDS011;9654;52.302;8.120;2022-08-06T11:25:52;0.63;;;0.20;;
19043;SDS011;9654;52.302;8.120;2022-08-06T11:28:20;2.10;;;0.53;;
19043;SDS011;9654;52.302;8.120;2022-08-06T11:31:30;0.23;;;0.20;;
19043;SDS011;9654;52.302;8.120;2022-08-06T11:34:02;1.60;;;0.20;;
19043;SDS011;9654;52.302;8.120;2022-08-06T11:36:42;0.60;;;0.20;;
19043;SDS011;9654;52.302;8.120;2022-08-06T11:39:16;4.43;;;0.40;;
19043;SDS011;9654;52.302;8.120;2022-08-06T11:41:49;1.00;;;0.40;;
19043;SDS011;9654;52.302;8.120;2022-08-06T11:44:20;5.28;;;0.30;;
19043;SDS011;9654;52.302;8.120;2022-08-06T11:47:04;0.50;;;0.20;;
19043;SDS011;9654;52.302;8.120;2022-08-06T11:49:37;0.47;;;0.22;;
19043;SDS011;9654;52.302;8.120;2022-08-06T11:52:05;0.93;;;0.20;;
19043;SDS011;9654;52.302;8.120;2022-08-06T11:54:33;0.30;;;0.28;;
19043;SDS011;9654;52.302;8.120;2022-08-06T11:57:17;2.60;;;0.47;;
19043;SDS011;9654;52.302;8.120;2022-08-06T11:59:46;8.50;;;0.70;;
19043;SDS011;9654;52.302;8.120;2022-08-06T12:05:35;0.80;;;0.40;;
19043;SDS011;9654;52.302;8.120;2022-08-06T12:08:17;2.13;;;0.40;;
19043;SDS011;9654;52.302;8.120;2022-08-06T12:13:50;0.60;;;0.30;;
19043;SDS011;9654;52.302;8.120;2022-08-06T12:16:27;0.47;;;0.40;;
19043;SDS011;9654;52.302;8.120;2022-08-06T12:18:56;2.10;;;0.80;;
19043;SDS011;9654;52.302;8.120;2022-08-06T12:21:23;0.60;;;0.40;;
19043;SDS011;9654;52.302;8.120;2022-08-06T12:23:50;0.47;;;0.43;;
19043;SDS011;9654;52.302;8.120;2022-08-06T12:26:18;1.23;;;0.30;;
19043;SDS011;9654;52.302;8.120;2022-08-06T12:28:45;0.80;;;0.33;;
19043;SDS011;9654;52.302;8.120;2022-08-06T12:31:13;3.47;;;0.30;;
19043;SDS011;9654;52.302;8.120;2022-08-06T12:33:53;0.38;;;0.38;;
19043;SDS011;9654;52.302;8.120;2022-08-06T12:36:24;1.70;;;0.20;;
19043;SDS011;9654;52.302;8.120;2022-08-06T12:38:53;0.50;;;0.50;;
19043;SDS011;9654;52.302;8.120;2022-08-06T12:41:21;1.65;;;0.22;;
19043;SDS011;9654;52.302;8.120;2022-08-06T12:43:48;3.13;;;0.30;;
19043;SDS011;9654;52.302;8.120;2022-08-06T12:46:15;1.27;;;0.30;;
19043;SDS011;9654;52.302;8.120;2022-08-06T12:48:44;0.70;;;0.22;;
19043;SDS011;9654;52.302;8.120;2022-08-06T12:51:12;0.85;;;0.30;;
19043;SDS011;9654;52.302;8.120;2022-08-06T12:53:41;2.08;;;0.30;;
19043;SDS011;9654;52.302;8.120;2022-08-06T12:56:12;0.97;;;0.30;;
19043;SDS011;9654;52.302;8.120;2022-08-06T12:58:40;2.47;;;0.20;;
19043;SDS011;9654;52.302;8.120;2022-08-06T13:01:08;0.40;;;0.30;;
19043;SDS011;9654;52.302;8.120;2022-08-06T13:03:39;1.03;;;0.30;;
19043;SDS011;9654;52.302;8.120;2022-08-06T13:06:08;0.65;;;0.30;;
19043;SDS011;9654;52.302;8.120;2022-08-06T13:08:36;1.03;;;0.20;;
19043;SDS011;9654;52.302;8.120;2022-08-06T13:11:05;0.70;;;0.30;;
19043;SDS011;9654;52.302;8.120;2022-08-06T13:13:36;0.30;;;0.20;;
19043;SDS011;9654;52.302;8.120;2022-08-06T13:16:05;0.80;;;0.30;;
19043;SDS011;9654;52.302;8.120;2022-08-06T13:18:34;0.20;;;0.20;;
19043;SDS011;9654;52.302;8.120;2022-08-06T13:21:01;1.47;;;0.20;;
19043;SDS011;9654;52.302;8.120;2022-08-06T13:23:30;0.20;;;0.20;;
19043;SDS011;9654;52.302;8.120;2022-08-06T13:25:58;1.20;;;0.90;;
19043;SDS011;9654;52.302;8.120;2022-08-06T13:28:39;1.60;;;0.40;;
19043;SDS011;9654;52.302;8.120;2022-08-06T13:31:16;0.80;;;0.40;;
19043;SDS011;9654;52.302;8.120;2022-08-06T13:33:57;0.23;;;0.23;;
19043;SDS011;9654;52.302;8.120;2022-08-06T13:36:25;2.03;;;0.30;;
19043;SDS011;9654;52.302;8.120;2022-08-06T13:38:53;0.60;;;0.30;;
19043;SDS011;9654;52.302;8.120;2022-08-06T13:41:25;0.85;;;0.28;;
19043;SDS011;9654;52.302;8.120;2022-08-06T13:43:53;1.45;;;0.40;;
19043;SDS011;9654;52.302;8.120;2022-08-06T13:46:20;1.58;;;0.40;;
19043;SDS011;9654;52.302;8.120;2022-08-06T13:48:48;0.40;;;0.30;;
19043;SDS011;9654;52.302;8.120;2022-08-06T13:51:17;1.10;;;0.30;;
19043;SDS011;9654;52.302;8.120;2022-08-06T13:53:45;1.30;;;0.32;;
19043;SDS011;9654;52.302;8.120;2022-08-06T13:56:12;1.35;;;0.43;;
19043;SDS011;9654;52.302;8.120;2022-08-06T13:58:41;1.02;;;0.40;;
19043;SDS011;9654;52.302;8.120;2022-08-06T14:01:10;0.40;;;0.40;;
19043;SDS011;9654;52.302;8.120;2022-08-06T14:03:37;0.95;;;0.30;;
19043;SDS011;9654;52.302;8.120;2022-08-06T14:06:05;1.03;;;0.47;;
19043;SDS011;9654;52.302;8.120;2022-08-06T14:08:32;0.90;;;0.30;;
19043;SDS011;9654;52.302;8.120;2022-08-06T14:10:59;0.57;;;0.40;;
19043;SDS011;9654;52.302;8.120;2022-08-06T14:13:25;0.40;;;0.27;;
19043;SDS011;9654;52.302;8.120;2022-08-06T14:15:54;0.60;;;0.30;;
19043;SDS011;9654;52.302;8.120;2022-08-06T14:18:21;2.00;;;0.30;;
19043;SDS011;9654;52.302;8.120;2022-08-06T14:20:48;1.07;;;0.40;;
19043;SDS011;9654;52.302;8.120;2022-08-06T14:23:14;0.70;;;0.40;;
19043;SDS011;9654;52.302;8.120;2022-08-06T14:25:41;0.40;;;0.33;;
19043;SDS011;9654;52.302;8.120;2022-08-06T14:28:08;0.30;;;0.30;;
19043;SDS011;9654;52.302;8.120;2022-08-06T14:30:35;1.27;;;0.47;;
19043;SDS011;9654;52.302;8.120;2022-08-06T14:33:03;1.75;;;0.45;;
19043;SDS011;9654;52.302;8.120;2022-08-06T14:35:33;0.63;;;0.30;;
19043;SDS011;9654;52.302;8.120;2022-08-06T14:38:01;0.40;;;0.30;;
19043;SDS011;9654;52.302;8.120;2022-08-06T14:40:28;1.45;;;0.47;;
19043;SDS011;9654;52.302;8.120;2022-08-06T14:43:12;0.80;;;0.40;;
19043;SDS011;9654;52.302;8.120;2022-08-06T14:45:56;2.13;;;0.43;;
19043;SDS011;9654;52.302;8.120;2022-08-06T14:48:24;2.75;;;0.60;;
19043;SDS011;9654;52.302;8.120;2022-08-06T14:50:51;1.30;;;0.30;;
19043;SDS011;9654;52.302;8.120;2022-08-06T14:53:18;0.90;;;0.60;;
19043;SDS011;9654;52.302;8.120;2022-08-06T14:55:45;1.08;;;0.40;;
19043;SDS011;9654;52.302;8.120;2022-08-06T14:58:11;2.40;;;0.57;;
19043;SDS011;9654;52.302;8.120;2022-08-06T15:00:38;0.90;;;0.40;;
19043;SDS011;9654;52.302;8.120;2022-08-06T15:03:05;1.57;;;0.50;;
19043;SDS011;9654;52.302;8.120;2022-08-06T15:05:33;1.20;;;0.50;;
19043;SDS011;9654;52.302;8.120;2022-08-06T15:08:00;1.50;;;0.50;;
19043;SDS011;9654;52.302;8.120;2022-08-06T15:10:27;1.65;;;0.30;;
19043;SDS011;9654;52.302;8.120;2022-08-06T15:12:54;1.70;;;0.70;;
19043;SDS011;9654;52.302;8.120;2022-08-06T15:15:21;0.80;;;0.30;;
19043;SDS011;9654;52.302;8.120;2022-08-06T15:17:48;0.83;;;0.63;;
19043;SDS011;9654;52.302;8.120;2022-08-06T15:20:14;2.23;;;0.70;;
19043;SDS011;9654;52.302;8.120;2022-08-06T15:22:43;4.83;;;1.17;;
19043;SDS011;9654;52.302;8.120;2022-08-06T15:25:09;1.80;;;0.53;;